createdAt,value
2019-02-22T06:00:16.000Z,28.8
2019-02-22T06:00:34.000Z,28.6
2019-02-22T06:01:33.000Z,29.3
2019-02-22T06:02:32.000Z,30.0
2019-02-22T06:03:32.000Z,30.4
2019-02-22T06:04:32.000Z,31.3
2019-02-22T06:05:32.000Z,31.8
2019-02-22T06:06:32.000Z,31.8
2019-02-22T06:07:33.000Z,33.8
2019-02-22T06:08:32.000Z,35.3
2019-02-22T06:09:33.000Z,43.2
2019-02-22T06:10:32.000Z,48.6
2019-02-22T06:11:31.000Z,45.1
2019-02-22T06:12:30.000Z,49.2
2019-02-22T06:13:31.000Z,44.6
2019-02-22T06:14:31.000Z,50.5
2019-02-22T06:15:31.000Z,54.7
2019-02-22T06:16:31.000Z,52.0
2019-02-22T06:17:31.000Z,57.2
2019-02-22T06:18:31.000Z,64.4
2019-02-22T06:19:31.000Z,58.3
2019-02-22T06:20:31.000Z,55.7
2019-02-22T06:21:31.000Z,51.6
2019-02-22T06:22:31.000Z,53.9
2019-02-22T06:23:31.000Z,57.3
2019-02-22T06:24:30.000Z,56.7
2019-02-22T06:25:30.000Z,61.1
2019-02-22T06:26:31.000Z,55.6
2019-02-22T06:27:30.000Z,60.1
2019-02-22T06:28:30.000Z,61.3
2019-02-22T06:29:31.000Z,67.5
2019-02-22T06:30:31.000Z,66.4
2019-02-22T06:31:31.000Z,62.7
2019-02-22T06:32:31.000Z,72.6
2019-02-22T06:33:31.000Z,62.2
2019-02-22T06:34:31.000Z,61.1
2019-02-22T06:35:31.000Z,63.3
2019-02-22T06:36:31.000Z,63.3
2019-02-22T06:37:31.000Z,67.7
2019-02-22T06:38:30.000Z,62.8
2019-02-22T06:39:31.000Z,55.9
2019-02-22T06:40:30.000Z,63.7
2019-02-22T06:41:30.000Z,71.2
2019-02-22T06:42:31.000Z,80.2
2019-02-22T06:43:31.000Z,68.7
2019-02-22T06:44:30.000Z,69.0
2019-02-22T06:45:31.000Z,64.8
2019-02-22T06:46:30.000Z,71.5
2019-02-22T06:47:31.000Z,71.8
2019-02-22T06:48:30.000Z,66.7
2019-02-22T06:49:30.000Z,69.9
2019-02-22T06:50:31.000Z,70.4
2019-02-22T06:51:31.000Z,74.3
2019-02-22T06:52:30.000Z,84.4
2019-02-22T06:53:30.000Z,78.8
2019-02-22T06:54:31.000Z,76.9
2019-02-22T06:55:31.000Z,71.1
2019-02-22T06:56:30.000Z,74.1
2019-02-22T06:57:30.000Z,77.3
2019-02-22T06:58:30.000Z,77.7
2019-02-22T06:59:31.000Z,75.5
2019-02-22T07:00:31.000Z,80.7
2019-02-22T07:01:30.000Z,81.5
2019-02-22T07:02:31.000Z,81.1
2019-02-22T07:03:30.000Z,81.3
2019-02-22T07:04:31.000Z,78.9
2019-02-22T07:05:31.000Z,75.9
2019-02-22T07:06:30.000Z,82.2
2019-02-22T07:07:31.000Z,85.6
2019-02-22T07:08:31.000Z,77.7
2019-02-22T07:09:32.000Z,86.0
2019-02-22T07:10:31.000Z,79.7
2019-02-22T07:11:30.000Z,70.2
2019-02-22T07:12:31.000Z,79.8
2019-02-22T07:13:32.000Z,82.1
2019-02-22T07:14:30.000Z,89.6
2019-02-22T07:15:31.000Z,86.6
2019-02-22T07:16:31.000Z,80.4
2019-02-22T07:17:30.000Z,71.1
2019-02-22T07:18:30.000Z,78.1
2019-02-22T07:19:31.000Z,87.2
2019-02-22T07:20:30.000Z,81.8
2019-02-22T07:21:31.000Z,85.3
2019-02-22T07:22:29.000Z,77.8
2019-02-22T07:23:30.000Z,87.5
2019-02-22T07:24:31.000Z,88.5
2019-02-22T07:25:31.000Z,91.5
2019-02-22T07:26:31.000Z,97.0
2019-02-22T07:27:31.000Z,90.4
2019-02-22T07:28:30.000Z,80.8
2019-02-22T07:29:31.000Z,87.6
2019-02-22T07:30:31.000Z,85.1
2019-02-22T07:31:31.000Z,75.7
2019-02-22T07:32:31.000Z,77.1
2019-02-22T07:33:30.000Z,94.7
2019-02-22T07:34:30.000Z,81.8
2019-02-22T07:35:31.000Z,80.9
2019-02-22T07:36:31.000Z,85.6
2019-02-22T07:37:30.000Z,81.8
2019-02-22T07:38:31.000Z,75.2
2019-02-22T07:39:31.000Z,77.7
2019-02-22T07:40:31.000Z,74.6
2019-02-22T07:41:31.000Z,76.3
2019-02-22T07:42:31.000Z,73.4
2019-02-22T07:43:30.000Z,77.9
2019-02-22T07:44:30.000Z,77.8
2019-02-22T07:45:31.000Z,84.8
2019-02-22T07:46:30.000Z,74.5
2019-02-22T07:47:30.000Z,69.9
2019-02-22T07:48:31.000Z,77.8
2019-02-22T07:49:31.000Z,74.3
2019-02-22T07:50:31.000Z,72.0
2019-02-22T07:51:32.000Z,69.6
2019-02-22T07:52:31.000Z,66.8
2019-02-22T07:53:31.000Z,71.1
2019-02-22T07:54:30.000Z,76.2
2019-02-22T07:55:30.000Z,65.5
2019-02-22T07:56:30.000Z,67.0
2019-02-22T07:57:30.000Z,69.1
2019-02-22T07:58:31.000Z,70.7
2019-02-22T07:59:31.000Z,68.8
2019-02-22T08:00:31.000Z,68.2
2019-02-22T08:01:30.000Z,69.1
2019-02-22T08:02:30.000Z,68.8
2019-02-22T08:03:30.000Z,65.0
2019-02-22T08:04:30.000Z,63.1
2019-02-22T08:05:30.000Z,71.1
2019-02-22T08:06:30.000Z,75.0
2019-02-22T08:07:31.000Z,73.8
2019-02-22T08:08:30.000Z,75.8
2019-02-22T08:09:31.000Z,91.5
2019-02-22T08:10:30.000Z,78.9
2019-02-22T08:11:30.000Z,72.7
2019-02-22T08:12:30.000Z,76.1
2019-02-22T08:13:31.000Z,68.5
2019-02-22T08:14:31.000Z,72.7
2019-02-22T08:15:30.000Z,69.6
2019-02-22T08:16:31.000Z,74.9
2019-02-22T08:17:30.000Z,74.9
2019-02-22T08:18:30.000Z,77.9
2019-02-22T08:19:31.000Z,78.3
2019-02-22T08:20:30.000Z,85.1
2019-02-22T08:21:30.000Z,82.6
2019-02-22T08:22:31.000Z,103.9
2019-02-22T08:23:30.000Z,88.3
2019-02-22T08:24:30.000Z,91.1
2019-02-22T08:25:31.000Z,94.3
2019-02-22T08:26:31.000Z,93.3
2019-02-22T08:27:30.000Z,88.9
2019-02-22T08:28:30.000Z,91.5
2019-02-22T08:29:30.000Z,89.7
2019-02-22T08:30:30.000Z,87.2
2019-02-22T08:31:31.000Z,92.1
2019-02-22T08:32:31.000Z,97.8
2019-02-22T08:33:31.000Z,95.2
2019-02-22T08:34:30.000Z,91.2
2019-02-22T08:35:30.000Z,96.1
2019-02-22T08:36:31.000Z,95.1
2019-02-22T08:37:30.000Z,125.8
2019-02-22T08:38:31.000Z,93.1
2019-02-22T08:39:30.000Z,86.6
2019-02-22T08:40:32.000Z,103.1
2019-02-22T08:41:30.000Z,104.1
2019-02-22T08:42:31.000Z,89.3
2019-02-22T08:43:31.000Z,96.3
2019-02-22T08:44:30.000Z,91.6
2019-02-22T08:45:30.000Z,96.8
2019-02-22T08:46:30.000Z,86.7
2019-02-22T08:47:31.000Z,98.2
2019-02-22T08:48:30.000Z,93.2
2019-02-22T08:49:30.000Z,112.5
2019-02-22T08:50:31.000Z,100.4
2019-02-22T08:51:30.000Z,100.5
2019-02-22T08:52:30.000Z,101.1
2019-02-22T08:53:31.000Z,116.3
2019-02-22T08:54:31.000Z,113.1
2019-02-22T08:55:31.000Z,118.7
2019-02-22T08:56:32.000Z,97.2
2019-02-22T08:57:30.000Z,151.3
2019-02-22T08:58:31.000Z,112.7
2019-02-22T08:59:31.000Z,112.4
2019-02-22T09:00:30.000Z,139.7
2019-02-22T09:01:30.000Z,154.0
2019-02-22T09:02:31.000Z,115.4
2019-02-22T09:03:30.000Z,125.3
2019-02-22T09:04:30.000Z,128.0
2019-02-22T09:05:31.000Z,152.2
2019-02-22T09:06:30.000Z,128.5
2019-02-22T09:07:30.000Z,116.3
2019-02-22T09:08:30.000Z,135.2
2019-02-22T09:09:31.000Z,115.9
2019-02-22T09:10:31.000Z,141.1
2019-02-22T09:11:32.000Z,113.5
2019-02-22T09:12:30.000Z,93.5
2019-02-22T09:13:31.000Z,115.4
2019-02-22T09:14:31.000Z,176.4
2019-02-22T09:15:31.000Z,151.1
2019-02-22T09:16:30.000Z,167.9
2019-02-22T09:17:31.000Z,113.4
2019-02-22T09:18:30.000Z,104.6
2019-02-22T09:19:31.000Z,121.0
2019-02-22T09:20:31.000Z,135.1
2019-02-22T09:21:31.000Z,114.3
2019-02-22T09:22:31.000Z,113.5
2019-02-22T09:23:31.000Z,129.7
2019-02-22T09:24:30.000Z,157.4
2019-02-22T09:25:30.000Z,130.6
2019-02-22T09:26:31.000Z,125.8
2019-02-22T09:27:30.000Z,149.0
2019-02-22T09:28:30.000Z,108.4
2019-02-22T09:29:31.000Z,153.7
2019-02-22T09:30:33.000Z,105.9
2019-02-22T09:31:31.000Z,178.5
2019-02-22T09:32:30.000Z,94.4
2019-02-22T09:33:31.000Z,154.4
2019-02-22T09:34:31.000Z,116.2
2019-02-22T09:35:30.000Z,109.5
2019-02-22T09:36:31.000Z,163.3
2019-02-22T09:37:32.000Z,140.2
2019-02-22T09:38:31.000Z,149.5
2019-02-22T09:39:32.000Z,127.6
2019-02-22T09:40:31.000Z,116.2
2019-02-22T09:41:30.000Z,172.7
2019-02-22T09:42:31.000Z,89.2
2019-02-22T09:43:31.000Z,99.7
2019-02-22T09:44:32.000Z,178.8
2019-02-22T09:45:31.000Z,101.7
2019-02-22T09:46:31.000Z,87.2
2019-02-22T09:47:31.000Z,235.0
2019-02-22T09:48:30.000Z,136.5
2019-02-22T09:49:30.000Z,145.1
2019-02-22T09:50:31.000Z,92.6
2019-02-22T09:51:30.000Z,119.3
2019-02-22T09:52:31.000Z,94.3
2019-02-22T09:53:30.000Z,75.4
2019-02-22T09:54:30.000Z,122.5
2019-02-22T09:55:31.000Z,93.0
2019-02-22T09:56:30.000Z,76.1
2019-02-22T09:57:30.000Z,107.4
2019-02-22T09:58:31.000Z,117.2
2019-02-22T09:59:30.000Z,63.9
2019-02-22T10:00:30.000Z,65.7
2019-02-22T10:01:31.000Z,71.9
2019-02-22T10:02:30.000Z,68.1
2019-02-22T10:03:30.000Z,71.5
2019-02-22T10:04:31.000Z,64.8
2019-02-22T10:05:31.000Z,68.1
2019-02-22T10:06:31.000Z,54.3
2019-02-22T10:07:30.000Z,60.9
2019-02-22T10:08:31.000Z,58.3
2019-02-22T10:09:32.000Z,65.2
2019-02-22T10:10:30.000Z,54.5
2019-02-22T10:11:31.000Z,55.9
2019-02-22T10:12:30.000Z,52.9
2019-02-22T10:13:31.000Z,97.7
2019-02-22T10:14:30.000Z,63.4
2019-02-22T10:15:30.000Z,52.7
2019-02-22T10:16:30.000Z,57.2
2019-02-22T10:17:31.000Z,46.2
2019-02-22T10:18:30.000Z,54.3
2019-02-22T10:19:30.000Z,52.8
2019-02-22T10:20:31.000Z,49.9
2019-02-22T10:21:31.000Z,49.6
2019-02-22T10:22:31.000Z,64.6
2019-02-22T10:23:30.000Z,59.0
2019-02-22T10:24:31.000Z,53.5
2019-02-22T10:25:31.000Z,49.3
2019-02-22T10:26:31.000Z,45.3
2019-02-22T10:27:31.000Z,48.2
2019-02-22T10:28:31.000Z,42.3
2019-02-22T10:29:30.000Z,41.8
2019-02-22T10:30:30.000Z,46.2
2019-02-22T10:31:31.000Z,40.3
2019-02-22T10:32:30.000Z,41.3
2019-02-22T10:33:30.000Z,57.3
2019-02-22T10:34:30.000Z,45.1
2019-02-22T10:35:30.000Z,37.0
2019-02-22T10:36:31.000Z,39.9
2019-02-22T10:37:31.000Z,37.8
2019-02-22T10:38:31.000Z,44.6
2019-02-22T10:39:32.000Z,40.8
2019-02-22T10:40:31.000Z,39.6
2019-02-22T10:41:31.000Z,44.2
2019-02-22T10:42:31.000Z,38.6
2019-02-22T10:43:31.000Z,39.4
2019-02-22T10:44:31.000Z,39.6
2019-02-22T10:45:31.000Z,38.5
2019-02-22T10:46:30.000Z,42.2
2019-02-22T10:47:31.000Z,37.3
2019-02-22T10:48:31.000Z,37.8
2019-02-22T10:49:30.000Z,36.7
2019-02-22T10:50:31.000Z,37.3
2019-02-22T10:51:30.000Z,41.3
2019-02-22T10:52:30.000Z,37.8
2019-02-22T10:53:31.000Z,37.4
2019-02-22T10:54:30.000Z,38.4
2019-02-22T10:55:31.000Z,32.7
2019-02-22T10:56:31.000Z,35.2
2019-02-22T10:57:30.000Z,33.3
2019-02-22T10:58:30.000Z,30.7
2019-02-22T10:59:31.000Z,35.8
2019-02-22T11:00:30.000Z,31.9
2019-02-22T11:01:31.000Z,33.0
2019-02-22T11:02:31.000Z,34.5
2019-02-22T11:03:30.000Z,32.1
2019-02-22T11:04:30.000Z,34.4
2019-02-22T11:05:30.000Z,30.0
2019-02-22T11:06:31.000Z,34.7
2019-02-22T11:07:31.000Z,32.1
2019-02-22T11:08:30.000Z,36.6
2019-02-22T11:09:32.000Z,35.6
2019-02-22T11:10:30.000Z,35.4
2019-02-22T11:11:31.000Z,31.0
2019-02-22T11:12:31.000Z,35.7
2019-02-22T11:13:31.000Z,29.2
2019-02-22T11:14:30.000Z,29.9
2019-02-22T11:15:30.000Z,32.2
2019-02-22T11:16:30.000Z,25.0
2019-02-22T11:17:31.000Z,26.3
2019-02-22T11:18:30.000Z,47.7
2019-02-22T11:19:30.000Z,53.0
2019-02-22T11:20:31.000Z,26.3
2019-02-22T11:21:31.000Z,26.5
2019-02-22T11:22:30.000Z,23.9
2019-02-22T11:23:31.000Z,22.3
2019-02-22T11:24:32.000Z,20.1
2019-02-22T11:25:31.000Z,23.2
2019-02-22T11:26:31.000Z,20.1
2019-02-22T11:27:30.000Z,17.8
2019-02-22T11:28:30.000Z,18.3
2019-02-22T11:29:30.000Z,18.6
2019-02-22T11:30:30.000Z,16.8
2019-02-22T11:31:30.000Z,18.0
2019-02-22T11:32:31.000Z,16.5
2019-02-22T11:33:30.000Z,16.4
2019-02-22T11:34:31.000Z,17.1
2019-02-22T11:35:30.000Z,16.0
2019-02-22T11:36:31.000Z,16.1
2019-02-22T11:37:30.000Z,15.0
2019-02-22T11:38:30.000Z,16.3
2019-02-22T11:39:32.000Z,16.1
2019-02-22T11:40:31.000Z,16.8
2019-02-22T11:41:30.000Z,16.5
2019-02-22T11:42:30.000Z,17.6
2019-02-22T11:43:30.000Z,19.2
2019-02-22T11:44:31.000Z,19.2
2019-02-22T11:45:30.000Z,19.7
2019-02-22T11:46:30.000Z,20.4
2019-02-22T11:47:31.000Z,19.5
2019-02-22T11:48:31.000Z,19.8
2019-02-22T11:49:31.000Z,20.7
2019-02-22T11:50:30.000Z,19.5
2019-02-22T11:51:31.000Z,21.7
2019-02-22T11:52:30.000Z,20.2
2019-02-22T11:53:30.000Z,23.7
2019-02-22T11:54:31.000Z,22.7
2019-02-22T11:55:30.000Z,21.7
2019-02-22T11:56:30.000Z,22.5
2019-02-22T11:57:30.000Z,21.6
2019-02-22T11:58:30.000Z,21.2
2019-02-22T11:59:31.000Z,23.5
2019-02-22T12:00:31.000Z,22.0
2019-02-22T12:01:30.000Z,22.6
2019-02-22T12:02:30.000Z,21.6
2019-02-22T12:03:30.000Z,22.4
2019-02-22T12:04:30.000Z,19.7
2019-02-22T12:05:31.000Z,19.0
2019-02-22T12:06:31.000Z,19.9
2019-02-22T12:07:31.000Z,20.3
2019-02-22T12:08:30.000Z,20.1
2019-02-22T12:09:32.000Z,18.8
2019-02-22T12:10:31.000Z,18.6
2019-02-22T12:11:30.000Z,18.8
2019-02-22T12:12:29.000Z,17.1
2019-02-22T12:13:31.000Z,20.3
2019-02-22T12:14:31.000Z,16.4
2019-02-22T12:15:29.000Z,17.3
2019-02-22T12:16:31.000Z,17.4
2019-02-22T12:17:31.000Z,15.8
2019-02-22T12:18:30.000Z,16.2
2019-02-22T12:19:30.000Z,17.2
2019-02-22T12:20:30.000Z,16.7
2019-02-22T12:21:29.000Z,15.0
2019-02-22T12:22:30.000Z,16.2
2019-02-22T12:23:31.000Z,15.0
2019-02-22T12:24:31.000Z,13.5
2019-02-22T12:25:30.000Z,14.2
2019-02-22T12:26:31.000Z,14.5
2019-02-22T12:27:31.000Z,13.9
2019-02-22T12:28:30.000Z,14.7
2019-02-22T12:29:31.000Z,14.2
2019-02-22T12:30:30.000Z,15.0
2019-02-22T12:31:31.000Z,14.5
2019-02-22T12:32:30.000Z,13.4
2019-02-22T12:33:31.000Z,14.4
2019-02-22T12:34:29.000Z,14.4
2019-02-22T12:35:30.000Z,14.6
2019-02-22T12:36:31.000Z,14.0
2019-02-22T12:37:29.000Z,14.4
2019-02-22T12:38:30.000Z,13.3
2019-02-22T12:39:31.000Z,13.2
2019-02-22T12:40:30.000Z,12.7
2019-02-22T12:41:30.000Z,11.5
2019-02-22T12:42:29.000Z,11.2
2019-02-22T12:43:30.000Z,11.8
2019-02-22T12:44:30.000Z,11.8
2019-02-22T12:45:30.000Z,11.5
2019-02-22T12:46:29.000Z,11.2
2019-02-22T12:47:29.000Z,11.4
2019-02-22T12:48:30.000Z,11.8
2019-02-22T12:49:29.000Z,12.4
2019-02-22T12:50:30.000Z,12.1
2019-02-22T12:51:29.000Z,12.5
2019-02-22T12:52:30.000Z,12.5
2019-02-22T12:53:29.000Z,13.1
2019-02-22T12:54:29.000Z,13.5
2019-02-22T12:55:30.000Z,13.3
2019-02-22T12:56:30.000Z,12.9
2019-02-22T12:57:32.000Z,11.4
2019-02-22T12:58:30.000Z,10.6
2019-02-22T12:59:31.000Z,10.3
2019-02-22T13:00:29.000Z,9.8
2019-02-22T13:01:29.000Z,10.1
2019-02-22T13:02:31.000Z,10.6
2019-02-22T13:03:29.000Z,10.1
2019-02-22T13:04:31.000Z,9.9
2019-02-22T13:05:30.000Z,8.8
2019-02-22T13:06:29.000Z,9.2
2019-02-22T13:07:30.000Z,8.6
2019-02-22T13:08:28.000Z,9.9
2019-02-22T13:09:31.000Z,10.1
2019-02-22T13:10:29.000Z,10.0
2019-02-22T13:11:30.000Z,8.5
2019-02-22T13:12:29.000Z,9.1
2019-02-22T13:13:29.000Z,8.9
2019-02-22T13:14:30.000Z,8.9
2019-02-22T13:15:29.000Z,9.2
2019-02-22T13:16:29.000Z,8.9
2019-02-22T13:17:29.000Z,9.2
2019-02-22T13:18:29.000Z,9.3
2019-02-22T13:19:30.000Z,9.1
2019-02-22T13:20:30.000Z,10.5
2019-02-22T13:21:30.000Z,8.9
2019-02-22T13:22:29.000Z,9.5
2019-02-22T13:23:30.000Z,10.1
2019-02-22T13:24:30.000Z,8.6
2019-02-22T13:25:31.000Z,8.9
2019-02-22T13:26:29.000Z,8.3
2019-02-22T13:27:31.000Z,8.9
2019-02-22T13:28:31.000Z,8.2
2019-02-22T13:29:31.000Z,8.7
2019-02-22T13:30:29.000Z,9.0
2019-02-22T13:31:31.000Z,9.5
2019-02-22T13:32:30.000Z,10.3
2019-02-22T13:33:29.000Z,10.1
2019-02-22T13:34:31.000Z,9.3
2019-02-22T13:35:30.000Z,9.6
2019-02-22T13:36:30.000Z,10.5
2019-02-22T13:37:30.000Z,9.5
2019-02-22T13:38:30.000Z,11.1
2019-02-22T13:39:31.000Z,10.3
2019-02-22T13:40:31.000Z,10.9
2019-02-22T13:41:31.000Z,9.9
2019-02-22T13:42:31.000Z,10.9
2019-02-22T13:43:30.000Z,10.9
2019-02-22T13:44:30.000Z,11.4
2019-02-22T13:45:31.000Z,18.3
2019-02-22T13:46:31.000Z,10.3
2019-02-22T13:47:30.000Z,9.8
2019-02-22T13:48:30.000Z,8.3
2019-02-22T13:49:31.000Z,8.9
2019-02-22T13:50:31.000Z,9.0
2019-02-22T13:51:31.000Z,9.0
2019-02-22T13:52:31.000Z,9.1
2019-02-22T13:53:31.000Z,8.7
2019-02-22T13:54:30.000Z,7.6
2019-02-22T13:55:30.000Z,7.9
2019-02-22T13:56:31.000Z,7.6
2019-02-22T13:57:30.000Z,7.3
2019-02-22T13:58:29.000Z,6.9
2019-02-22T13:59:31.000Z,6.5
2019-02-22T14:00:30.000Z,7.3
2019-02-22T14:01:30.000Z,6.8
2019-02-22T14:02:31.000Z,6.4
2019-02-22T14:03:31.000Z,6.2
2019-02-22T14:04:31.000Z,6.8
2019-02-22T14:05:30.000Z,5.7
2019-02-22T14:06:30.000Z,5.6
2019-02-22T14:07:31.000Z,6.3
2019-02-22T14:08:31.000Z,6.7
2019-02-22T14:09:32.000Z,6.5
2019-02-22T14:10:31.000Z,5.9
2019-02-22T14:11:31.000Z,8.1
2019-02-22T14:12:30.000Z,6.2
2019-02-22T14:13:31.000Z,6.6
2019-02-22T14:14:30.000Z,6.1
2019-02-22T14:15:31.000Z,6.8
2019-02-22T14:16:30.000Z,6.3
2019-02-22T14:17:31.000Z,7.8
2019-02-22T14:18:30.000Z,6.5
2019-02-22T14:19:31.000Z,6.1
2019-02-22T14:20:31.000Z,7.7
2019-02-22T14:21:31.000Z,6.7
2019-02-22T14:22:31.000Z,6.6
2019-02-22T14:23:31.000Z,6.4
2019-02-22T14:24:31.000Z,9.6
2019-02-22T14:25:31.000Z,7.2
2019-02-22T14:26:31.000Z,6.7
2019-02-22T14:27:31.000Z,7.0
2019-02-22T14:28:31.000Z,6.3
2019-02-22T14:29:31.000Z,6.8
2019-02-22T14:30:31.000Z,6.4
2019-02-22T14:31:30.000Z,6.7
2019-02-22T14:32:30.000Z,6.7
2019-02-22T14:33:30.000Z,6.7
2019-02-22T14:34:31.000Z,7.1
2019-02-22T14:35:31.000Z,7.6
2019-02-22T14:36:30.000Z,7.5
2019-02-22T14:37:30.000Z,6.3
2019-02-22T14:38:30.000Z,6.6
2019-02-22T14:39:31.000Z,6.1
2019-02-22T14:40:31.000Z,7.0
2019-02-22T14:41:31.000Z,6.1
2019-02-22T14:42:30.000Z,5.8
2019-02-22T14:43:30.000Z,10.3
2019-02-22T14:44:30.000Z,6.0
2019-02-22T14:45:30.000Z,7.2
2019-02-22T14:46:31.000Z,5.5
2019-02-22T14:47:31.000Z,6.1
2019-02-22T14:48:31.000Z,5.2
2019-02-22T14:49:31.000Z,5.7
2019-02-22T14:50:31.000Z,5.3
2019-02-22T14:51:30.000Z,4.8
2019-02-22T14:52:30.000Z,5.3
2019-02-22T14:53:29.000Z,5.6
2019-02-22T14:54:31.000Z,5.5
2019-02-22T14:55:31.000Z,5.8
2019-02-22T14:56:31.000Z,5.9
2019-02-22T14:57:31.000Z,5.8
2019-02-22T14:58:29.000Z,5.4
2019-02-22T14:59:30.000Z,5.3
2019-02-22T15:00:31.000Z,5.2
2019-02-22T15:01:30.000Z,4.9
2019-02-22T15:02:29.000Z,5.0
2019-02-22T15:03:30.000Z,5.4
2019-02-22T15:04:30.000Z,5.1
2019-02-22T15:05:29.000Z,4.9
2019-02-22T15:06:31.000Z,5.3
2019-02-22T15:07:31.000Z,4.8
2019-02-22T15:08:30.000Z,4.1
2019-02-22T15:09:32.000Z,4.8
2019-02-22T15:10:30.000Z,4.5
2019-02-22T15:11:30.000Z,4.4
2019-02-22T15:12:30.000Z,4.2
2019-02-22T15:13:30.000Z,4.5
2019-02-22T15:14:30.000Z,5.0
2019-02-22T15:15:31.000Z,5.4
2019-02-22T15:16:31.000Z,4.7
2019-02-22T15:17:30.000Z,4.4
2019-02-22T15:18:30.000Z,4.8
2019-02-22T15:19:31.000Z,4.4
2019-02-22T15:20:30.000Z,8.2
2019-02-22T15:21:30.000Z,4.6
2019-02-22T15:22:30.000Z,4.1
2019-02-22T15:23:30.000Z,4.5
2019-02-22T15:24:31.000Z,4.4
2019-02-22T15:25:29.000Z,4.1
2019-02-22T15:26:30.000Z,4.5
2019-02-22T15:27:30.000Z,4.5
2019-02-22T15:28:30.000Z,4.6
2019-02-22T15:29:30.000Z,4.0
2019-02-22T15:30:31.000Z,4.0
2019-02-22T15:31:31.000Z,14.9
2019-02-22T15:32:30.000Z,5.2
2019-02-22T15:33:31.000Z,4.3
2019-02-22T15:34:30.000Z,3.4
2019-02-22T15:35:30.000Z,4.9
2019-02-22T15:36:31.000Z,4.2
2019-02-22T15:37:30.000Z,3.7
2019-02-22T15:38:30.000Z,7.0
2019-02-22T15:39:31.000Z,6.0
2019-02-22T15:40:31.000Z,4.7
2019-02-22T15:41:30.000Z,4.9
2019-02-22T15:42:31.000Z,4.3
2019-02-22T15:43:30.000Z,4.2
2019-02-22T15:44:31.000Z,3.9
2019-02-22T15:45:30.000Z,4.0
2019-02-22T15:46:30.000Z,3.4
2019-02-22T15:47:31.000Z,3.7
2019-02-22T15:48:32.000Z,4.1
2019-02-22T15:49:31.000Z,3.9
2019-02-22T15:50:31.000Z,4.4
2019-02-22T15:51:30.000Z,4.6
2019-02-22T15:52:31.000Z,4.7
2019-02-22T15:53:30.000Z,4.0
2019-02-22T15:54:30.000Z,4.7
2019-02-22T15:55:31.000Z,3.6
2019-02-22T15:56:30.000Z,4.0
2019-02-22T15:57:31.000Z,4.3
2019-02-22T15:58:30.000Z,3.9
2019-02-22T15:59:30.000Z,6.4
2019-02-22T16:00:31.000Z,4.0
2019-02-22T16:01:31.000Z,4.1
2019-02-22T16:02:31.000Z,4.1
2019-02-22T16:03:30.000Z,4.0
2019-02-22T16:04:31.000Z,4.8
2019-02-22T16:05:30.000Z,4.1
2019-02-22T16:06:30.000Z,4.4
2019-02-22T16:07:31.000Z,4.1
2019-02-22T16:08:30.000Z,4.2
2019-02-22T16:09:31.000Z,4.0
2019-02-22T16:10:30.000Z,4.2
2019-02-22T16:11:31.000Z,5.4
2019-02-22T16:12:30.000Z,4.8
2019-02-22T16:13:30.000Z,4.2
2019-02-22T16:14:30.000Z,4.6
2019-02-22T16:15:30.000Z,5.2
2019-02-22T16:16:30.000Z,5.0
2019-02-22T16:17:31.000Z,5.7
2019-02-22T16:18:30.000Z,5.0
2019-02-22T16:19:31.000Z,5.7
2019-02-22T16:20:31.000Z,5.7
2019-02-22T16:21:30.000Z,4.7
2019-02-22T16:22:31.000Z,5.4
2019-02-22T16:23:31.000Z,5.1
2019-02-22T16:24:30.000Z,5.9
2019-02-22T16:25:30.000Z,4.8
2019-02-22T16:26:31.000Z,6.7
2019-02-22T16:27:30.000Z,5.5
2019-02-22T16:28:31.000Z,5.8
2019-02-22T16:29:30.000Z,5.8
2019-02-22T16:30:30.000Z,5.5
2019-02-22T16:31:30.000Z,5.6
2019-02-22T16:32:30.000Z,5.8
2019-02-22T16:33:31.000Z,5.4
2019-02-22T16:34:29.000Z,5.9
2019-02-22T16:35:30.000Z,5.5
2019-02-22T16:36:31.000Z,5.8
2019-02-22T16:37:31.000Z,5.9
2019-02-22T16:38:31.000Z,6.4
2019-02-22T16:39:32.000Z,5.6
2019-02-22T16:40:30.000Z,5.9
2019-02-22T16:41:30.000Z,5.8
2019-02-22T16:42:31.000Z,5.3
2019-02-22T16:43:30.000Z,5.6
2019-02-22T16:44:31.000Z,5.1
2019-02-22T16:45:30.000Z,6.5
2019-02-22T16:46:31.000Z,5.6
2019-02-22T16:47:30.000Z,5.3
2019-02-22T16:48:31.000Z,5.4
2019-02-22T16:49:30.000Z,6.9
2019-02-22T16:50:30.000Z,4.8
2019-02-22T16:51:31.000Z,5.0
2019-02-22T16:52:31.000Z,5.2
2019-02-22T16:53:31.000Z,5.2
2019-02-22T16:54:31.000Z,5.7
2019-02-22T16:55:31.000Z,5.3
2019-02-22T16:56:30.000Z,5.1
2019-02-22T16:57:30.000Z,5.4
2019-02-22T16:58:31.000Z,5.0
2019-02-22T16:59:31.000Z,5.2
2019-02-22T17:00:31.000Z,5.1
2019-02-22T17:01:31.000Z,5.6
2019-02-22T17:02:30.000Z,5.2
2019-02-22T17:03:31.000Z,4.7
2019-02-22T17:04:31.000Z,4.8
2019-02-22T17:05:31.000Z,5.3
2019-02-22T17:06:30.000Z,7.2
2019-02-22T17:07:30.000Z,5.6
2019-02-22T17:08:30.000Z,7.0
2019-02-22T17:09:32.000Z,6.2
2019-02-22T17:10:30.000Z,8.8
2019-02-22T17:11:30.000Z,5.8
2019-02-22T17:12:31.000Z,5.8
2019-02-22T17:13:31.000Z,7.0
2019-02-22T17:14:31.000Z,6.0
2019-02-22T17:15:30.000Z,5.7
2019-02-22T17:16:31.000Z,5.7
2019-02-22T17:17:31.000Z,6.8
2019-02-22T17:18:30.000Z,6.3
2019-02-22T17:19:31.000Z,6.2
2019-02-22T17:20:31.000Z,6.8
2019-02-22T17:21:31.000Z,7.3
2019-02-22T17:22:30.000Z,5.9
2019-02-22T17:23:30.000Z,6.3
2019-02-22T17:24:31.000Z,6.1
2019-02-22T17:25:30.000Z,6.2
2019-02-22T17:26:31.000Z,7.0
2019-02-22T17:27:31.000Z,6.1
2019-02-22T17:28:31.000Z,7.4
2019-02-22T17:29:31.000Z,7.3
2019-02-22T17:30:30.000Z,7.3
2019-02-22T17:31:30.000Z,6.8
2019-02-22T17:32:30.000Z,7.0
2019-02-22T17:33:30.000Z,8.0
2019-02-22T17:34:31.000Z,8.8
2019-02-22T17:35:30.000Z,8.4
2019-02-22T17:36:31.000Z,9.4
2019-02-22T17:37:31.000Z,7.8
2019-02-22T17:38:30.000Z,8.0
2019-02-22T17:39:32.000Z,9.0
2019-02-22T17:40:31.000Z,9.0
2019-02-22T17:41:31.000Z,9.7
2019-02-22T17:42:30.000Z,9.8
2019-02-22T17:43:30.000Z,10.5
2019-02-22T17:44:31.000Z,11.2
2019-02-22T17:45:31.000Z,11.9
2019-02-22T17:46:30.000Z,13.9
2019-02-22T17:47:31.000Z,11.7
2019-02-22T17:48:30.000Z,11.7
2019-02-22T17:49:31.000Z,10.7
2019-02-22T17:50:30.000Z,10.2
2019-02-22T17:51:31.000Z,8.9
2019-02-22T17:52:31.000Z,8.9
2019-02-22T17:53:30.000Z,9.0
2019-02-22T17:54:30.000Z,11.0
2019-02-22T17:55:31.000Z,8.7
2019-02-22T17:56:30.000Z,9.9
2019-02-22T17:57:31.000Z,9.3
2019-02-22T17:58:30.000Z,9.2
2019-02-22T17:59:31.000Z,10.6
2019-02-22T18:00:31.000Z,8.9
2019-02-22T18:01:30.000Z,8.7
2019-02-22T18:02:30.000Z,8.8
2019-02-22T18:03:31.000Z,10.2
2019-02-22T18:04:31.000Z,9.2
2019-02-22T18:05:30.000Z,9.1
2019-02-22T18:06:31.000Z,9.4
2019-02-22T18:07:31.000Z,10.1
2019-02-22T18:08:31.000Z,9.6
2019-02-22T18:09:31.000Z,9.6
2019-02-22T18:10:31.000Z,10.4
2019-02-22T18:11:30.000Z,11.8
2019-02-22T18:12:30.000Z,14.8
2019-02-22T18:13:31.000Z,11.9
2019-02-22T18:14:30.000Z,11.7
2019-02-22T18:15:31.000Z,11.3
2019-02-22T18:16:30.000Z,11.4
2019-02-22T18:17:30.000Z,11.0
2019-02-22T18:18:30.000Z,11.7
2019-02-22T18:19:31.000Z,13.2
2019-02-22T18:20:31.000Z,10.1
2019-02-22T18:21:31.000Z,9.9
2019-02-22T18:22:30.000Z,11.1
2019-02-22T18:23:30.000Z,9.7
2019-02-22T18:24:31.000Z,9.5
2019-02-22T18:25:30.000Z,9.2
2019-02-22T18:26:30.000Z,9.5
2019-02-22T18:27:31.000Z,9.3
2019-02-22T18:28:30.000Z,9.3
2019-02-22T18:29:31.000Z,9.7
2019-02-22T18:30:31.000Z,9.4
2019-02-22T18:31:30.000Z,9.5
2019-02-22T18:32:31.000Z,9.0
2019-02-22T18:33:31.000Z,10.1
2019-02-22T18:34:30.000Z,9.8
2019-02-22T18:35:31.000Z,10.3
2019-02-22T18:36:30.000Z,9.9
2019-02-22T18:37:31.000Z,12.7
2019-02-22T18:38:30.000Z,10.6
2019-02-22T18:39:32.000Z,11.5
2019-02-22T18:40:31.000Z,11.2
2019-02-22T18:41:30.000Z,11.6
2019-02-22T18:42:31.000Z,11.4
2019-02-22T18:43:31.000Z,10.8
2019-02-22T18:44:31.000Z,10.2
2019-02-22T18:45:31.000Z,15.5
2019-02-22T18:46:31.000Z,10.3
2019-02-22T18:47:31.000Z,12.1
2019-02-22T18:48:30.000Z,10.9
2019-02-22T18:49:31.000Z,11.1
2019-02-22T18:50:30.000Z,10.0
2019-02-22T18:51:31.000Z,10.9
2019-02-22T18:52:31.000Z,10.1
2019-02-22T18:53:30.000Z,9.7
2019-02-22T18:54:30.000Z,12.5
2019-02-22T18:55:30.000Z,13.2
2019-02-22T18:56:31.000Z,10.0
2019-02-22T18:57:30.000Z,10.0
2019-02-22T18:58:31.000Z,10.7
2019-02-22T18:59:31.000Z,12.8
2019-02-22T19:00:31.000Z,11.6
2019-02-22T19:01:30.000Z,11.9
2019-02-22T19:02:31.000Z,12.4
2019-02-22T19:03:29.000Z,11.5
2019-02-22T19:04:31.000Z,10.5
2019-02-22T19:05:31.000Z,11.4
2019-02-22T19:06:31.000Z,13.5
2019-02-22T19:07:31.000Z,13.9
2019-02-22T19:08:31.000Z,15.3
2019-02-22T19:09:31.000Z,12.7
2019-02-22T19:10:30.000Z,13.8
2019-02-22T19:11:31.000Z,12.1
2019-02-22T19:12:30.000Z,13.0
2019-02-22T19:13:30.000Z,12.2
2019-02-22T19:14:30.000Z,15.3
2019-02-22T19:15:30.000Z,12.8
2019-02-22T19:16:30.000Z,12.5
2019-02-22T19:17:30.000Z,11.5
2019-02-22T19:18:30.000Z,12.6
2019-02-22T19:19:31.000Z,13.5
2019-02-22T19:20:30.000Z,15.2
2019-02-22T19:21:31.000Z,16.5
2019-02-22T19:22:30.000Z,21.1
2019-02-22T19:23:31.000Z,20.0
2019-02-22T19:24:31.000Z,19.0
2019-02-22T19:25:31.000Z,17.5